sensor_id;sensor_type;location;lat;lon;timestamp;P1;durP1;ratioP1;P2;durP2;ratioP2
19800;SDS011;10060;48.274;12.214;2023-02-28T00:01:27;8.93;;;5.30;;
19800;SDS011;10060;48.274;12.214;2023-02-28T00:04:29;6.13;;;5.43;;
19800;SDS011;10060;48.274;12.214;2023-02-28T00:07:31;7.60;;;5.57;;
19800;SDS011;10060;48.274;12.214;2023-02-28T00:10:33;7.70;;;5.73;;
19800;SDS011;10060;48.274;12.214;2023-02-28T00:13:36;6.63;;;5.33;;
19800;SDS011;10060;48.274;12.214;2023-02-28T00:16:40;10.83;;;5.90;;
19800;SDS011;10060;48.274;12.214;2023-02-28T00:19:42;6.63;;;5.80;;
19800;SDS011;10060;48.274;12.214;2023-02-28T00:22:45;8.43;;;5.70;;
19800;SDS011;10060;48.274;12.214;2023-02-28T00:25:48;10.17;;;5.40;;
19800;SDS011;10060;48.274;12.214;2023-02-28T00:28:51;7.07;;;5.40;;
19800;SDS011;10060;48.274;12.214;2023-02-28T00:31:55;6.73;;;5.10;;
19800;SDS011;10060;48.274;12.214;2023-02-28T00:34:57;6.70;;;5.30;;
19800;SDS011;10060;48.274;12.214;2023-02-28T00:37:59;7.97;;;5.90;;
19800;SDS011;10060;48.274;12.214;2023-02-28T00:41:01;6.57;;;5.87;;
19800;SDS011;10060;48.274;12.214;2023-02-28T00:44:04;7.07;;;5.87;;
19800;SDS011;10060;48.274;12.214;2023-02-28T00:47:08;8.07;;;5.80;;
19800;SDS011;10060;48.274;12.214;2023-02-28T00:50:10;7.90;;;5.80;;
19800;SDS011;10060;48.274;12.214;2023-02-28T00:53:12;6.63;;;5.53;;
19800;SDS011;10060;48.274;12.214;2023-02-28T00:56:14;7.43;;;6.00;;
19800;SDS011;10060;48.274;12.214;2023-02-28T00:59:17;7.13;;;5.53;;
19800;SDS011;10060;48.274;12.214;2023-02-28T01:02:21;7.93;;;5.40;;
19800;SDS011;10060;48.274;12.214;2023-02-28T01:05:23;10.33;;;5.50;;
19800;SDS011;10060;48.274;12.214;2023-02-28T01:08:25;8.37;;;5.47;;
19800;SDS011;10060;48.274;12.214;2023-02-28T01:11:27;7.00;;;5.37;;
19800;SDS011;10060;48.274;12.214;2023-02-28T01:14:29;8.97;;;5.33;;
19800;SDS011;10060;48.274;12.214;2023-02-28T01:17:33;9.47;;;6.30;;
19800;SDS011;10060;48.274;12.214;2023-02-28T01:20:35;7.43;;;5.80;;
19800;SDS011;10060;48.274;12.214;2023-02-28T01:23:38;7.10;;;5.87;;
19800;SDS011;10060;48.274;12.214;2023-02-28T01:26:40;8.50;;;5.83;;
19800;SDS011;10060;48.274;12.214;2023-02-28T01:29:42;7.33;;;5.90;;
19800;SDS011;10060;48.274;12.214;2023-02-28T01:32:45;8.67;;;6.00;;
19800;SDS011;10060;48.274;12.214;2023-02-28T01:35:47;9.97;;;6.40;;
19800;SDS011;10060;48.274;12.214;2023-02-28T01:38:50;9.43;;;6.60;;
19800;SDS011;10060;48.274;12.214;2023-02-28T01:41:52;9.37;;;6.20;;
19800;SDS011;10060;48.274;12.214;2023-02-28T01:44:58;8.23;;;6.33;;
19800;SDS011;10060;48.274;12.214;2023-02-28T01:48:03;9.07;;;5.53;;
19800;SDS011;10060;48.274;12.214;2023-02-28T01:51:08;7.70;;;6.20;;
19800;SDS011;10060;48.274;12.214;2023-02-28T01:54:14;10.83;;;7.03;;
19800;SDS011;10060;48.274;12.214;2023-02-28T01:57:18;7.63;;;6.20;;
19800;SDS011;10060;48.274;12.214;2023-02-28T02:00:21;9.63;;;6.60;;
19800;SDS011;10060;48.274;12.214;2023-02-28T02:03:25;12.20;;;6.30;;
19800;SDS011;10060;48.274;12.214;2023-02-28T02:06:29;10.60;;;7.43;;
19800;SDS011;10060;48.274;12.214;2023-02-28T02:09:31;9.63;;;6.93;;
19800;SDS011;10060;48.274;12.214;2023-02-28T02:12:37;12.67;;;8.07;;
19800;SDS011;10060;48.274;12.214;2023-02-28T02:15:46;10.47;;;6.83;;
19800;SDS011;10060;48.274;12.214;2023-02-28T02:18:53;13.60;;;7.57;;
19800;SDS011;10060;48.274;12.214;2023-02-28T02:22:01;11.20;;;7.80;;
19800;SDS011;10060;48.274;12.214;2023-02-28T02:25:19;11.37;;;7.50;;
19800;SDS011;10060;48.274;12.214;2023-02-28T02:31:58;11.27;;;6.97;;
19800;SDS011;10060;48.274;12.214;2023-02-28T02:35:12;13.40;;;7.77;;
19800;SDS011;10060;48.274;12.214;2023-02-28T02:38:16;12.83;;;7.57;;
19800;SDS011;10060;48.274;12.214;2023-02-28T02:41:23;14.23;;;8.27;;
19800;SDS011;10060;48.274;12.214;2023-02-28T02:44:27;12.20;;;7.17;;
19800;SDS011;10060;48.274;12.214;2023-02-28T02:47:30;12.57;;;8.73;;
19800;SDS011;10060;48.274;12.214;2023-02-28T02:50:34;14.33;;;8.23;;
19800;SDS011;10060;48.274;12.214;2023-02-28T02:53:40;11.80;;;7.60;;
19800;SDS011;10060;48.274;12.214;2023-02-28T02:56:44;11.27;;;7.70;;
19800;SDS011;10060;48.274;12.214;2023-02-28T02:59:47;11.33;;;7.43;;
19800;SDS011;10060;48.274;12.214;2023-02-28T03:02:50;15.00;;;8.07;;
19800;SDS011;10060;48.274;12.214;2023-02-28T03:05:56;13.17;;;7.67;;
19800;SDS011;10060;48.274;12.214;2023-02-28T03:08:59;12.80;;;7.20;;
19800;SDS011;10060;48.274;12.214;2023-02-28T03:12:01;13.50;;;8.80;;
19800;SDS011;10060;48.274;12.214;2023-02-28T03:15:06;15.20;;;8.40;;
19800;SDS011;10060;48.274;12.214;2023-02-28T03:18:10;12.90;;;7.87;;
19800;SDS011;10060;48.274;12.214;2023-02-28T03:21:17;12.23;;;8.10;;
19800;SDS011;10060;48.274;12.214;2023-02-28T03:24:21;13.13;;;8.80;;
19800;SDS011;10060;48.274;12.214;2023-02-28T03:27:26;16.63;;;9.47;;
19800;SDS011;10060;48.274;12.214;2023-02-28T03:30:30;14.07;;;8.63;;
19800;SDS011;10060;48.274;12.214;2023-02-28T03:33:38;16.77;;;8.93;;
19800;SDS011;10060;48.274;12.214;2023-02-28T03:36:44;14.43;;;8.83;;
19800;SDS011;10060;48.274;12.214;2023-02-28T03:39:49;14.53;;;9.27;;
19800;SDS011;10060;48.274;12.214;2023-02-28T03:42:57;13.53;;;8.77;;
19800;SDS011;10060;48.274;12.214;2023-02-28T03:46:02;14.97;;;8.80;;
19800;SDS011;10060;48.274;12.214;2023-02-28T03:49:08;16.67;;;8.67;;
19800;SDS011;10060;48.274;12.214;2023-02-28T03:52:12;16.30;;;9.23;;
19800;SDS011;10060;48.274;12.214;2023-02-28T03:55:14;14.63;;;9.20;;
19800;SDS011;10060;48.274;12.214;2023-02-28T03:58:20;14.83;;;9.87;;
19800;SDS011;10060;48.274;12.214;2023-02-28T04:01:25;22.27;;;10.63;;
19800;SDS011;10060;48.274;12.214;2023-02-28T04:04:28;13.90;;;9.40;;
19800;SDS011;10060;48.274;12.214;2023-02-28T04:07:32;17.33;;;9.23;;
19800;SDS011;10060;48.274;12.214;2023-02-28T04:10:34;16.93;;;9.80;;
19800;SDS011;10060;48.274;12.214;2023-02-28T04:13:36;15.73;;;9.50;;
19800;SDS011;10060;48.274;12.214;2023-02-28T04:16:39;16.23;;;9.27;;
19800;SDS011;10060;48.274;12.214;2023-02-28T04:19:41;14.73;;;9.20;;
19800;SDS011;10060;48.274;12.214;2023-02-28T04:22:45;18.80;;;10.47;;
19800;SDS011;10060;48.274;12.214;2023-02-28T04:25:47;15.17;;;9.67;;
19800;SDS011;10060;48.274;12.214;2023-02-28T04:28:51;15.87;;;9.63;;
19800;SDS011;10060;48.274;12.214;2023-02-28T04:31:53;19.57;;;10.37;;
19800;SDS011;10060;48.274;12.214;2023-02-28T04:34:57;17.77;;;11.57;;
19800;SDS011;10060;48.274;12.214;2023-02-28T04:38:01;18.93;;;10.80;;
19800;SDS011;10060;48.274;12.214;2023-02-28T04:41:03;16.70;;;10.00;;
19800;SDS011;10060;48.274;12.214;2023-02-28T04:44:05;15.83;;;10.00;;
19800;SDS011;10060;48.274;12.214;2023-02-28T04:47:08;18.37;;;10.90;;
19800;SDS011;10060;48.274;12.214;2023-02-28T04:50:10;18.83;;;9.90;;
19800;SDS011;10060;48.274;12.214;2023-02-28T04:53:13;17.73;;;9.60;;
19800;SDS011;10060;48.274;12.214;2023-02-28T04:56:16;18.37;;;10.43;;
19800;SDS011;10060;48.274;12.214;2023-02-28T04:59:18;20.07;;;10.77;;
19800;SDS011;10060;48.274;12.214;2023-02-28T05:02:20;16.53;;;10.07;;
19800;SDS011;10060;48.274;12.214;2023-02-28T05:05:23;17.20;;;10.27;;
19800;SDS011;10060;48.274;12.214;2023-02-28T05:08:27;18.17;;;10.10;;
19800;SDS011;10060;48.274;12.214;2023-02-28T05:11:31;17.23;;;9.97;;
19800;SDS011;10060;48.274;12.214;2023-02-28T05:14:35;15.10;;;9.60;;
19800;SDS011;10060;48.274;12.214;2023-02-28T05:17:37;17.60;;;10.43;;
19800;SDS011;10060;48.274;12.214;2023-02-28T05:20:39;18.00;;;9.97;;
19800;SDS011;10060;48.274;12.214;2023-02-28T05:23:42;16.43;;;9.53;;
19800;SDS011;10060;48.274;12.214;2023-02-28T05:26:44;15.57;;;9.53;;
19800;SDS011;10060;48.274;12.214;2023-02-28T05:29:46;17.53;;;10.27;;
19800;SDS011;10060;48.274;12.214;2023-02-28T05:32:49;15.67;;;9.53;;
19800;SDS011;10060;48.274;12.214;2023-02-28T05:35:52;18.10;;;11.17;;
19800;SDS011;10060;48.274;12.214;2023-02-28T05:38:55;17.37;;;10.33;;
19800;SDS011;10060;48.274;12.214;2023-02-28T05:41:58;15.53;;;10.20;;
19800;SDS011;10060;48.274;12.214;2023-02-28T05:45:00;15.43;;;10.17;;
19800;SDS011;10060;48.274;12.214;2023-02-28T05:48:02;14.43;;;10.03;;
19800;SDS011;10060;48.274;12.214;2023-02-28T05:51:04;18.13;;;9.80;;
19800;SDS011;10060;48.274;12.214;2023-02-28T05:54:08;15.17;;;10.00;;
19800;SDS011;10060;48.274;12.214;2023-02-28T05:57:10;16.00;;;9.57;;
19800;SDS011;10060;48.274;12.214;2023-02-28T06:00:13;15.53;;;9.90;;
19800;SDS011;10060;48.274;12.214;2023-02-28T06:03:17;15.83;;;10.03;;
19800;SDS011;10060;48.274;12.214;2023-02-28T06:06:19;16.27;;;10.13;;
19800;SDS011;10060;48.274;12.214;2023-02-28T06:09:23;17.73;;;10.03;;
19800;SDS011;10060;48.274;12.214;2023-02-28T06:12:26;16.27;;;10.43;;
19800;SDS011;10060;48.274;12.214;2023-02-28T06:15:28;15.73;;;9.40;;
19800;SDS011;10060;48.274;12.214;2023-02-28T06:18:30;19.70;;;9.80;;
19800;SDS011;10060;48.274;12.214;2023-02-28T06:21:32;18.70;;;10.27;;
19800;SDS011;10060;48.274;12.214;2023-02-28T06:24:36;17.10;;;9.33;;
19800;SDS011;10060;48.274;12.214;2023-02-28T06:27:38;18.53;;;9.57;;
19800;SDS011;10060;48.274;12.214;2023-02-28T06:30:40;16.17;;;10.07;;
19800;SDS011;10060;48.274;12.214;2023-02-28T06:33:43;16.67;;;10.00;;
19800;SDS011;10060;48.274;12.214;2023-02-28T06:36:45;13.03;;;8.77;;
19800;SDS011;10060;48.274;12.214;2023-02-28T06:39:49;17.13;;;10.50;;
19800;SDS011;10060;48.274;12.214;2023-02-28T06:42:51;16.80;;;9.53;;
19800;SDS011;10060;48.274;12.214;2023-02-28T06:45:54;17.13;;;9.03;;
19800;SDS011;10060;48.274;12.214;2023-02-28T06:48:56;15.30;;;9.80;;
19800;SDS011;10060;48.274;12.214;2023-02-28T06:51:58;15.13;;;8.63;;
19800;SDS011;10060;48.274;12.214;2023-02-28T06:55:01;17.93;;;9.43;;
19800;SDS011;10060;48.274;12.214;2023-02-28T06:58:04;22.07;;;10.50;;
19800;SDS011;10060;48.274;12.214;2023-02-28T07:01:15;13.20;;;9.07;;
19800;SDS011;10060;48.274;12.214;2023-02-28T07:04:17;14.00;;;9.57;;
19800;SDS011;10060;48.274;12.214;2023-02-28T07:07:19;17.57;;;9.93;;
19800;SDS011;10060;48.274;12.214;2023-02-28T07:10:22;15.40;;;9.47;;
19800;SDS011;10060;48.274;12.214;2023-02-28T07:13:24;13.73;;;9.10;;
19800;SDS011;10060;48.274;12.214;2023-02-28T07:16:27;15.50;;;10.07;;
19800;SDS011;10060;48.274;12.214;2023-02-28T07:19:29;17.27;;;9.90;;
19800;SDS011;10060;48.274;12.214;2023-02-28T07:22:31;17.50;;;9.77;;
19800;SDS011;10060;48.274;12.214;2023-02-28T07:25:34;18.40;;;10.00;;
19800;SDS011;10060;48.274;12.214;2023-02-28T07:28:36;19.03;;;9.90;;
19800;SDS011;10060;48.274;12.214;2023-02-28T07:31:39;16.97;;;10.40;;
19800;SDS011;10060;48.274;12.214;2023-02-28T07:34:41;16.33;;;9.57;;
19800;SDS011;10060;48.274;12.214;2023-02-28T07:37:43;20.50;;;11.00;;
19800;SDS011;10060;48.274;12.214;2023-02-28T07:40:48;20.03;;;10.00;;
19800;SDS011;10060;48.274;12.214;2023-02-28T07:43:52;17.77;;;10.27;;
19800;SDS011;10060;48.274;12.214;2023-02-28T07:46:54;18.43;;;10.40;;
19800;SDS011;10060;48.274;12.214;2023-02-28T07:49:57;18.00;;;10.77;;
19800;SDS011;10060;48.274;12.214;2023-02-28T07:56:10;17.53;;;9.47;;
19800;SDS011;10060;48.274;12.214;2023-02-28T07:59:12;21.77;;;10.77;;
19800;SDS011;10060;48.274;12.214;2023-02-28T08:02:15;14.83;;;7.90;;
19800;SDS011;10060;48.274;12.214;2023-02-28T08:05:18;19.10;;;11.03;;
19800;SDS011;10060;48.274;12.214;2023-02-28T08:08:20;20.97;;;10.90;;
19800;SDS011;10060;48.274;12.214;2023-02-28T08:11:23;22.73;;;11.27;;
19800;SDS011;10060;48.274;12.214;2023-02-28T08:14:25;18.87;;;11.00;;
19800;SDS011;10060;48.274;12.214;2023-02-28T08:17:28;12.00;;;8.10;;
19800;SDS011;10060;48.274;12.214;2023-02-28T08:20:30;16.43;;;10.27;;
19800;SDS011;10060;48.274;12.214;2023-02-28T08:23:32;18.03;;;10.27;;
19800;SDS011;10060;48.274;12.214;2023-02-28T08:26:36;17.97;;;10.83;;
19800;SDS011;10060;48.274;12.214;2023-02-28T08:29:38;19.00;;;10.50;;
19800;SDS011;10060;48.274;12.214;2023-02-28T08:32:40;17.20;;;10.77;;
19800;SDS011;10060;48.274;12.214;2023-02-28T08:35:42;18.00;;;9.27;;
19800;SDS011;10060;48.274;12.214;2023-02-28T08:38:44;19.00;;;11.23;;
19800;SDS011;10060;48.274;12.214;2023-02-28T08:41:48;21.27;;;11.60;;
19800;SDS011;10060;48.274;12.214;2023-02-28T08:44:50;17.73;;;10.47;;
19800;SDS011;10060;48.274;12.214;2023-02-28T08:47:53;18.17;;;10.97;;
19800;SDS011;10060;48.274;12.214;2023-02-28T08:50:55;18.77;;;9.70;;
19800;SDS011;10060;48.274;12.214;2023-02-28T08:53:58;16.37;;;10.83;;
19800;SDS011;10060;48.274;12.214;2023-02-28T08:57:02;18.90;;;10.43;;
19800;SDS011;10060;48.274;12.214;2023-02-28T09:00:05;17.03;;;9.47;;
19800;SDS011;10060;48.274;12.214;2023-02-28T09:03:08;18.27;;;10.20;;
19800;SDS011;10060;48.274;12.214;2023-02-28T09:06:10;16.53;;;10.20;;
19800;SDS011;10060;48.274;12.214;2023-02-28T09:09:12;13.90;;;8.40;;
19800;SDS011;10060;48.274;12.214;2023-02-28T09:12:16;17.03;;;9.70;;
19800;SDS011;10060;48.274;12.214;2023-02-28T09:15:18;21.23;;;10.47;;
19800;SDS011;10060;48.274;12.214;2023-02-28T09:18:20;14.37;;;9.23;;
19800;SDS011;10060;48.274;12.214;2023-02-28T09:21:22;26.60;;;10.00;;
19800;SDS011;10060;48.274;12.214;2023-02-28T09:24:24;18.50;;;9.50;;
19800;SDS011;10060;48.274;12.214;2023-02-28T09:27:28;18.00;;;9.53;;
19800;SDS011;10060;48.274;12.214;2023-02-28T09:30:30;16.90;;;9.40;;
19800;SDS011;10060;48.274;12.214;2023-02-28T09:33:32;17.13;;;9.73;;
19800;SDS011;10060;48.274;12.214;2023-02-28T09:36:35;20.17;;;10.03;;
19800;SDS011;10060;48.274;12.214;2023-02-28T09:39:38;17.77;;;9.73;;
19800;SDS011;10060;48.274;12.214;2023-02-28T09:42:41;15.30;;;8.80;;
19800;SDS011;10060;48.274;12.214;2023-02-28T09:45:45;16.90;;;9.43;;
19800;SDS011;10060;48.274;12.214;2023-02-28T09:48:48;15.63;;;9.53;;
19800;SDS011;10060;48.274;12.214;2023-02-28T09:51:53;15.50;;;10.10;;
19800;SDS011;10060;48.274;12.214;2023-02-28T09:54:59;20.93;;;10.40;;
19800;SDS011;10060;48.274;12.214;2023-02-28T09:58:03;19.87;;;10.87;;
19800;SDS011;10060;48.274;12.214;2023-02-28T10:01:06;19.07;;;10.07;;
19800;SDS011;10060;48.274;12.214;2023-02-28T10:04:13;15.93;;;9.63;;
19800;SDS011;10060;48.274;12.214;2023-02-28T10:07:20;16.93;;;9.17;;
19800;SDS011;10060;48.274;12.214;2023-02-28T10:10:24;15.90;;;9.87;;
19800;SDS011;10060;48.274;12.214;2023-02-28T10:13:31;16.67;;;9.77;;
19800;SDS011;10060;48.274;12.214;2023-02-28T10:16:35;16.93;;;9.07;;
19800;SDS011;10060;48.274;12.214;2023-02-28T10:19:40;14.13;;;9.27;;
19800;SDS011;10060;48.274;12.214;2023-02-28T10:22:45;17.67;;;9.87;;
19800;SDS011;10060;48.274;12.214;2023-02-28T10:25:52;18.67;;;13.80;;
19800;SDS011;10060;48.274;12.214;2023-02-28T10:28:57;16.20;;;10.07;;
19800;SDS011;10060;48.274;12.214;2023-02-28T10:31:59;15.77;;;9.30;;
19800;SDS011;10060;48.274;12.214;2023-02-28T10:35:07;16.13;;;9.40;;
19800;SDS011;10060;48.274;12.214;2023-02-28T10:38:14;15.87;;;10.03;;
19800;SDS011;10060;48.274;12.214;2023-02-28T10:41:26;15.30;;;8.83;;
19800;SDS011;10060;48.274;12.214;2023-02-28T10:44:30;17.57;;;9.50;;
19800;SDS011;10060;48.274;12.214;2023-02-28T10:47:32;16.93;;;9.70;;
19800;SDS011;10060;48.274;12.214;2023-02-28T10:50:36;15.53;;;9.50;;
19800;SDS011;10060;48.274;12.214;2023-02-28T10:53:40;17.40;;;9.63;;
19800;SDS011;10060;48.274;12.214;2023-02-28T11:00:12;14.87;;;10.20;;
19800;SDS011;10060;48.274;12.214;2023-02-28T11:03:23;14.43;;;9.00;;
19800;SDS011;10060;48.274;12.214;2023-02-28T11:06:26;14.40;;;9.10;;
19800;SDS011;10060;48.274;12.214;2023-02-28T11:09:29;17.37;;;9.90;;
19800;SDS011;10060;48.274;12.214;2023-02-28T11:12:34;14.83;;;8.93;;
19800;SDS011;10060;48.274;12.214;2023-02-28T11:15:40;18.67;;;10.70;;
19800;SDS011;10060;48.274;12.214;2023-02-28T11:18:43;14.53;;;9.63;;
19800;SDS011;10060;48.274;12.214;2023-02-28T11:21:50;19.57;;;9.90;;
19800;SDS011;10060;48.274;12.214;2023-02-28T11:24:54;15.30;;;9.10;;
19800;SDS011;10060;48.274;12.214;2023-02-28T11:27:58;16.60;;;9.00;;
19800;SDS011;10060;48.274;12.214;2023-02-28T11:31:05;14.00;;;9.40;;
19800;SDS011;10060;48.274;12.214;2023-02-28T11:34:22;16.07;;;9.33;;
19800;SDS011;10060;48.274;12.214;2023-02-28T11:37:25;13.97;;;9.50;;
19800;SDS011;10060;48.274;12.214;2023-02-28T11:40:30;16.97;;;9.97;;
19800;SDS011;10060;48.274;12.214;2023-02-28T11:43:38;15.80;;;8.37;;
19800;SDS011;10060;48.274;12.214;2023-02-28T11:46:47;14.97;;;9.70;;
19800;SDS011;10060;48.274;12.214;2023-02-28T11:49:53;12.80;;;9.10;;
19800;SDS011;10060;48.274;12.214;2023-02-28T11:53:00;16.60;;;9.97;;
19800;SDS011;10060;48.274;12.214;2023-02-28T11:56:03;18.83;;;8.83;;
19800;SDS011;10060;48.274;12.214;2023-02-28T11:59:12;15.03;;;9.50;;
19800;SDS011;10060;48.274;12.214;2023-02-28T12:02:20;16.40;;;9.33;;
19800;SDS011;10060;48.274;12.214;2023-02-28T12:05:26;15.57;;;9.03;;
19800;SDS011;10060;48.274;12.214;2023-02-28T12:08:41;15.53;;;9.47;;
19800;SDS011;10060;48.274;12.214;2023-02-28T12:11:48;16.33;;;9.73;;
19800;SDS011;10060;48.274;12.214;2023-02-28T12:14:59;14.07;;;9.13;;
19800;SDS011;10060;48.274;12.214;2023-02-28T12:18:07;13.93;;;8.53;;
19800;SDS011;10060;48.274;12.214;2023-02-28T12:21:14;18.03;;;10.17;;
19800;SDS011;10060;48.274;12.214;2023-02-28T12:27:36;19.97;;;10.43;;
19800;SDS011;10060;48.274;12.214;2023-02-28T12:30:39;14.60;;;9.90;;
19800;SDS011;10060;48.274;12.214;2023-02-28T12:33:45;14.47;;;9.30;;
19800;SDS011;10060;48.274;12.214;2023-02-28T12:36:47;15.27;;;10.40;;
19800;SDS011;10060;48.274;12.214;2023-02-28T12:39:51;16.77;;;10.13;;
19800;SDS011;10060;48.274;12.214;2023-02-28T12:42:54;17.73;;;10.30;;
19800;SDS011;10060;48.274;12.214;2023-02-28T12:45:58;15.87;;;9.90;;
19800;SDS011;10060;48.274;12.214;2023-02-28T12:49:05;18.20;;;9.47;;
19800;SDS011;10060;48.274;12.214;2023-02-28T12:52:08;14.63;;;9.67;;
19800;SDS011;10060;48.274;12.214;2023-02-28T12:55:14;16.87;;;10.13;;
19800;SDS011;10060;48.274;12.214;2023-02-28T12:58:20;17.17;;;9.80;;
19800;SDS011;10060;48.274;12.214;2023-02-28T13:04:54;13.80;;;9.43;;
19800;SDS011;10060;48.274;12.214;2023-02-28T13:11:34;15.13;;;9.10;;
19800;SDS011;10060;48.274;12.214;2023-02-28T13:14:40;14.03;;;9.00;;
19800;SDS011;10060;48.274;12.214;2023-02-28T13:17:42;16.47;;;10.37;;
19800;SDS011;10060;48.274;12.214;2023-02-28T13:20:51;17.77;;;9.73;;
19800;SDS011;10060;48.274;12.214;2023-02-28T13:24:00;16.17;;;9.63;;
19800;SDS011;10060;48.274;12.214;2023-02-28T13:34:05;17.90;;;9.60;;
19800;SDS011;10060;48.274;12.214;2023-02-28T13:37:34;15.50;;;9.27;;
19800;SDS011;10060;48.274;12.214;2023-02-28T13:40:37;15.57;;;9.53;;
19800;SDS011;10060;48.274;12.214;2023-02-28T13:50:34;17.57;;;9.93;;
19800;SDS011;10060;48.274;12.214;2023-02-28T13:53:46;13.67;;;8.53;;
19800;SDS011;10060;48.274;12.214;2023-02-28T13:56:55;14.80;;;9.20;;
19800;SDS011;10060;48.274;12.214;2023-02-28T14:00:07;17.03;;;9.80;;
19800;SDS011;10060;48.274;12.214;2023-02-28T14:03:22;18.90;;;10.17;;
19800;SDS011;10060;48.274;12.214;2023-02-28T14:06:28;18.17;;;10.57;;
19800;SDS011;10060;48.274;12.214;2023-02-28T14:09:33;17.67;;;10.83;;
19800;SDS011;10060;48.274;12.214;2023-02-28T14:12:55;14.87;;;9.47;;
19800;SDS011;10060;48.274;12.214;2023-02-28T14:15:58;15.43;;;10.07;;
19800;SDS011;10060;48.274;12.214;2023-02-28T14:19:01;16.30;;;9.73;;
19800;SDS011;10060;48.274;12.214;2023-02-28T14:22:09;20.80;;;10.87;;
19800;SDS011;10060;48.274;12.214;2023-02-28T14:25:18;15.43;;;10.03;;
19800;SDS011;10060;48.274;12.214;2023-02-28T14:28:24;17.83;;;10.40;;
19800;SDS011;10060;48.274;12.214;2023-02-28T14:31:28;16.20;;;9.97;;
19800;SDS011;10060;48.274;12.214;2023-02-28T14:34:34;19.33;;;9.83;;
19800;SDS011;10060;48.274;12.214;2023-02-28T14:37:38;16.40;;;10.23;;
19800;SDS011;10060;48.274;12.214;2023-02-28T14:40:42;18.73;;;10.30;;
19800;SDS011;10060;48.274;12.214;2023-02-28T14:43:48;17.30;;;9.93;;
19800;SDS011;10060;48.274;12.214;2023-02-28T14:46:52;17.53;;;10.63;;
19800;SDS011;10060;48.274;12.214;2023-02-28T14:49:54;22.57;;;10.47;;
19800;SDS011;10060;48.274;12.214;2023-02-28T14:52:56;16.17;;;10.73;;
19800;SDS011;10060;48.274;12.214;2023-02-28T14:56:00;16.40;;;10.63;;
19800;SDS011;10060;48.274;12.214;2023-02-28T14:59:03;16.97;;;10.27;;
19800;SDS011;10060;48.274;12.214;2023-02-28T15:02:15;16.83;;;9.97;;
19800;SDS011;10060;48.274;12.214;2023-02-28T15:05:28;16.37;;;10.27;;
19800;SDS011;10060;48.274;12.214;2023-02-28T15:08:30;19.30;;;9.77;;
19800;SDS011;10060;48.274;12.214;2023-02-28T15:11:37;15.90;;;10.47;;
19800;SDS011;10060;48.274;12.214;2023-02-28T15:14:41;16.67;;;10.43;;
19800;SDS011;10060;48.274;12.214;2023-02-28T15:17:45;19.27;;;10.63;;
19800;SDS011;10060;48.274;12.214;2023-02-28T15:20:47;16.63;;;10.53;;
19800;SDS011;10060;48.274;12.214;2023-02-28T15:23:50;26.03;;;11.43;;
19800;SDS011;10060;48.274;12.214;2023-02-28T15:26:56;21.83;;;11.27;;
19800;SDS011;10060;48.274;12.214;2023-02-28T15:29:59;20.07;;;10.63;;
19800;SDS011;10060;48.274;12.214;2023-02-28T15:33:03;17.27;;;10.47;;
19800;SDS011;10060;48.274;12.214;2023-02-28T15:36:06;19.30;;;10.07;;
19800;SDS011;10060;48.274;12.214;2023-02-28T15:39:18;16.53;;;10.40;;
19800;SDS011;10060;48.274;12.214;2023-02-28T15:42:22;20.30;;;11.17;;
19800;SDS011;10060;48.274;12.214;2023-02-28T15:45:35;18.43;;;10.50;;
19800;SDS011;10060;48.274;12.214;2023-02-28T15:48:42;17.17;;;10.83;;
19800;SDS011;10060;48.274;12.214;2023-02-28T15:51:45;18.07;;;10.67;;
19800;SDS011;10060;48.274;12.214;2023-02-28T15:54:47;15.73;;;10.00;;
19800;SDS011;10060;48.274;12.214;2023-02-28T15:57:52;18.37;;;10.20;;
19800;SDS011;10060;48.274;12.214;2023-02-28T16:01:01;19.33;;;9.80;;
19800;SDS011;10060;48.274;12.214;2023-02-28T16:04:11;18.53;;;11.00;;
19800;SDS011;10060;48.274;12.214;2023-02-28T16:07:13;17.33;;;10.43;;
19800;SDS011;10060;48.274;12.214;2023-02-28T16:10:16;19.47;;;11.73;;
19800;SDS011;10060;48.274;12.214;2023-02-28T16:13:19;18.97;;;11.13;;
19800;SDS011;10060;48.274;12.214;2023-02-28T16:16:22;32.87;;;12.97;;
19800;SDS011;10060;48.274;12.214;2023-02-28T16:19:25;19.43;;;11.57;;
19800;SDS011;10060;48.274;12.214;2023-02-28T16:22:27;21.27;;;11.10;;
19800;SDS011;10060;48.274;12.214;2023-02-28T16:25:33;18.50;;;11.47;;
19800;SDS011;10060;48.274;12.214;2023-02-28T16:28:37;21.63;;;11.17;;
19800;SDS011;10060;48.274;12.214;2023-02-28T16:31:40;16.73;;;10.33;;
19800;SDS011;10060;48.274;12.214;2023-02-28T16:34:42;20.90;;;11.70;;
19800;SDS011;10060;48.274;12.214;2023-02-28T16:37:44;19.07;;;11.17;;
19800;SDS011;10060;48.274;12.214;2023-02-28T16:40:47;20.80;;;10.57;;
19800;SDS011;10060;48.274;12.214;2023-02-28T16:43:53;19.50;;;11.93;;
19800;SDS011;10060;48.274;12.214;2023-02-28T16:46:59;18.13;;;11.43;;
19800;SDS011;10060;48.274;12.214;2023-02-28T16:50:05;21.73;;;12.63;;
19800;SDS011;10060;48.274;12.214;2023-02-28T16:53:07;23.47;;;13.67;;
19800;SDS011;10060;48.274;12.214;2023-02-28T16:56:14;21.07;;;12.10;;
19800;SDS011;10060;48.274;12.214;2023-02-28T16:59:19;20.63;;;11.53;;
19800;SDS011;10060;48.274;12.214;2023-02-28T17:02:23;18.67;;;11.60;;
19800;SDS011;10060;48.274;12.214;2023-02-28T17:05:25;21.50;;;12.53;;
19800;SDS011;10060;48.274;12.214;2023-02-28T17:08:28;20.13;;;12.70;;
19800;SDS011;10060;48.274;12.214;2023-02-28T17:11:32;21.50;;;12.83;;
19800;SDS011;10060;48.274;12.214;2023-02-28T17:14:35;22.13;;;13.10;;
19800;SDS011;10060;48.274;12.214;2023-02-28T17:17:37;20.37;;;13.30;;
19800;SDS011;10060;48.274;12.214;2023-02-28T17:20:39;19.90;;;11.70;;
19800;SDS011;10060;48.274;12.214;2023-02-28T17:23:42;22.00;;;13.40;;
19800;SDS011;10060;48.274;12.214;2023-02-28T17:26:44;22.07;;;12.60;;
19800;SDS011;10060;48.274;12.214;2023-02-28T17:29:48;22.23;;;12.57;;
19800;SDS011;10060;48.274;12.214;2023-02-28T17:32:50;24.33;;;13.63;;
19800;SDS011;10060;48.274;12.214;2023-02-28T17:35:52;24.10;;;13.10;;
19800;SDS011;10060;48.274;12.214;2023-02-28T17:38:54;25.03;;;13.27;;
19800;SDS011;10060;48.274;12.214;2023-02-28T17:41:58;24.17;;;13.07;;
19800;SDS011;10060;48.274;12.214;2023-02-28T17:45:02;23.80;;;13.43;;
19800;SDS011;10060;48.274;12.214;2023-02-28T17:48:04;24.37;;;13.27;;
19800;SDS011;10060;48.274;12.214;2023-02-28T17:51:08;23.03;;;12.50;;
19800;SDS011;10060;48.274;12.214;2023-02-28T17:54:11;26.53;;;13.87;;
19800;SDS011;10060;48.274;12.214;2023-02-28T17:57:14;22.20;;;13.40;;
19800;SDS011;10060;48.274;12.214;2023-02-28T18:00:18;24.63;;;14.00;;
19800;SDS011;10060;48.274;12.214;2023-02-28T18:03:23;22.37;;;13.90;;
19800;SDS011;10060;48.274;12.214;2023-02-28T18:06:28;22.53;;;13.07;;
19800;SDS011;10060;48.274;12.214;2023-02-28T18:09:32;23.40;;;13.67;;
19800;SDS011;10060;48.274;12.214;2023-02-28T18:12:34;22.93;;;13.20;;
19800;SDS011;10060;48.274;12.214;2023-02-28T18:15:37;22.83;;;13.53;;
19800;SDS011;10060;48.274;12.214;2023-02-28T18:18:39;21.13;;;12.57;;
19800;SDS011;10060;48.274;12.214;2023-02-28T18:21:42;23.37;;;12.67;;
19800;SDS011;10060;48.274;12.214;2023-02-28T18:24:44;20.70;;;12.77;;
19800;SDS011;10060;48.274;12.214;2023-02-28T18:27:46;26.97;;;14.17;;